createdAt,value
2018-09-04T00:02:19.651Z,101148.52
2018-09-04T00:04:48.056Z,101145.41
2018-09-04T00:07:19.832Z,101143.88
2018-09-04T00:09:49.460Z,101148.30
2018-09-04T00:12:18.585Z,101151.05
2018-09-04T00:14:47.172Z,101142.84
2018-09-04T00:17:15.729Z,101149.17
2018-09-04T00:19:44.085Z,101150.54
2018-09-04T00:22:12.536Z,101147.61
2018-09-04T00:24:41.055Z,101140.59
2018-09-04T00:27:09.753Z,101147.62
2018-09-04T00:29:38.361Z,101147.10
2018-09-04T00:32:06.504Z,101145.54
2018-09-04T00:34:34.926Z,101146.91
2018-09-04T00:37:03.184Z,101141.95
2018-09-04T00:39:32.228Z,101138.00
2018-09-04T00:42:00.694Z,101140.73
2018-09-04T00:44:29.709Z,101142.42
2018-09-04T00:46:58.695Z,101140.19
2018-09-04T00:49:27.633Z,101142.58
2018-09-04T00:51:56.044Z,101149.24
2018-09-04T00:54:24.468Z,101142.91
2018-09-04T00:56:53.156Z,101141.89
2018-09-04T00:59:21.373Z,101149.73
2018-09-04T01:01:50.071Z,101146.66
2018-09-04T01:04:18.728Z,101143.05
2018-09-04T01:06:47.493Z,101142.00
2018-09-04T01:09:18.923Z,101150.73
2018-09-04T01:11:47.172Z,101152.45
2018-09-04T01:14:15.896Z,101154.30
2018-09-04T01:16:44.664Z,101162.27
2018-09-04T01:19:13.344Z,101157.29
2018-09-04T01:21:42.041Z,101164.26
2018-09-04T01:24:10.924Z,101160.16
2018-09-04T01:26:39.122Z,101153.30
2018-09-04T01:29:07.796Z,101160.30
2018-09-04T01:31:36.574Z,101154.80
2018-09-04T01:34:04.688Z,101159.06
2018-09-04T01:36:33.438Z,101151.53
2018-09-04T01:39:01.741Z,101156.69
2018-09-04T01:41:29.868Z,101156.33
2018-09-04T01:43:58.257Z,101158.71
2018-09-04T01:46:27.018Z,101155.11
2018-09-04T01:48:55.360Z,101156.82
2018-09-04T01:51:23.817Z,101160.08
2018-09-04T01:53:52.564Z,101158.01
2018-09-04T01:56:21.449Z,101156.81
2018-09-04T01:58:50.097Z,101153.73
2018-09-04T02:01:19.045Z,101154.92
2018-09-04T02:03:47.693Z,101152.16
2018-09-04T02:06:16.180Z,101142.94
2018-09-04T02:08:44.873Z,101151.80
2018-09-04T02:11:13.482Z,101145.28
2018-09-04T02:13:41.940Z,101141.36
2018-09-04T02:16:10.669Z,101138.80
2018-09-04T02:18:38.813Z,101136.07
2018-09-04T02:21:07.280Z,101134.70
2018-09-04T02:23:35.736Z,101130.44
2018-09-04T02:26:04.507Z,101133.17
2018-09-04T02:28:33.146Z,101134.18
2018-09-04T02:31:01.904Z,101132.63
2018-09-04T02:33:30.299Z,101134.48
2018-09-04T02:35:58.991Z,101127.97
2018-09-04T02:38:27.833Z,101133.42
2018-09-04T02:40:55.958Z,101135.94
2018-09-04T02:43:24.393Z,101134.73
2018-09-04T02:45:52.580Z,101131.83
2018-09-04T02:48:21.034Z,101132.35
2018-09-04T02:50:49.933Z,101136.94
2018-09-04T02:53:18.385Z,101135.58
2018-09-04T02:55:46.918Z,101133.16
2018-09-04T02:58:16.096Z,101140.31
2018-09-04T03:00:44.698Z,101136.53
2018-09-04T03:03:12.848Z,101139.22
2018-09-04T03:05:41.359Z,101143.97
2018-09-04T03:08:09.632Z,101137.98
2018-09-04T03:10:37.814Z,101132.34
2018-09-04T03:13:06.521Z,101134.89
2018-09-04T03:15:34.812Z,101138.28
2018-09-04T03:18:03.270Z,101136.56
2018-09-04T03:20:31.997Z,101136.56
2018-09-04T03:23:00.512Z,101134.19
2018-09-04T03:25:28.817Z,101130.61
2018-09-04T03:27:57.397Z,101130.08
2018-09-04T03:30:26.066Z,101133.11
2018-09-04T03:32:54.813Z,101128.17
2018-09-04T03:35:23.591Z,101134.64
2018-09-04T03:37:52.016Z,101130.69
2018-09-04T03:40:20.753Z,101137.19
2018-09-04T03:42:49.208Z,101134.11
2018-09-04T03:45:17.921Z,101121.77
2018-09-04T03:47:46.412Z,101140.52
2018-09-04T03:50:15.951Z,101137.44
2018-09-04T03:52:44.057Z,101144.61
2018-09-04T03:55:12.801Z,101143.42
2018-09-04T03:57:41.359Z,101143.53
2018-09-04T04:00:09.671Z,101142.51
2018-09-04T04:02:38.122Z,101141.94
2018-09-04T04:05:06.262Z,101142.75
2018-09-04T04:07:36.377Z,101147.18
2018-09-04T04:10:04.797Z,101146.28
2018-09-04T04:12:33.269Z,101144.56
2018-09-04T04:15:01.986Z,101138.27
2018-09-04T04:17:30.893Z,101135.33
2018-09-04T04:19:59.660Z,101139.23
2018-09-04T04:22:27.978Z,101138.03
2018-09-04T04:24:56.259Z,101140.75
2018-09-04T04:27:24.917Z,101137.86
2018-09-04T04:29:53.041Z,101139.39
2018-09-04T04:32:22.392Z,101139.20
2018-09-04T04:34:50.712Z,101136.94
2018-09-04T04:37:18.965Z,101139.14
2018-09-04T04:39:47.834Z,101142.52
2018-09-04T04:42:16.493Z,101139.80
2018-09-04T04:44:44.637Z,101142.75
2018-09-04T04:47:12.864Z,101146.48
2018-09-04T04:49:41.028Z,101150.05
2018-09-04T04:52:09.484Z,101152.61
2018-09-04T04:54:37.956Z,101154.14
2018-09-04T04:57:06.066Z,101148.69
2018-09-04T04:59:34.525Z,101151.11
2018-09-04T05:02:03.409Z,101147.22
2018-09-04T05:04:31.825Z,101154.03
2018-09-04T05:07:00.130Z,101154.22
2018-09-04T05:09:28.260Z,101159.05
2018-09-04T05:11:57.053Z,101161.17
2018-09-04T05:14:25.797Z,101171.25
2018-09-04T05:16:53.917Z,101162.73
2018-09-04T05:19:22.061Z,101168.91
2018-09-04T05:21:50.168Z,101169.44
2018-09-04T05:24:18.321Z,101164.39
2018-09-04T05:26:46.697Z,101175.02
2018-09-04T05:29:16.463Z,101173.33
2018-09-04T05:31:48.781Z,101169.77
2018-09-04T05:34:17.464Z,101168.64
2018-09-04T05:36:46.140Z,101162.71
2018-09-04T05:39:16.045Z,101168.25
2018-09-04T05:41:44.513Z,101164.36
2018-09-04T05:44:12.947Z,101162.02
2018-09-04T05:46:43.973Z,101166.48
2018-09-04T05:49:14.620Z,101164.99
2018-09-04T05:51:43.281Z,101172.17
2018-09-04T05:54:11.701Z,101174.77
2018-09-04T05:56:40.503Z,101175.48
2018-09-04T05:59:08.917Z,101181.34
2018-09-04T06:01:37.037Z,101181.05
2018-09-04T06:04:05.485Z,101187.39
2018-09-04T06:06:34.278Z,101182.81
2018-09-04T06:09:02.686Z,101189.86
2018-09-04T06:11:31.461Z,101187.13
2018-09-04T06:14:00.201Z,101182.75
2018-09-04T06:16:28.921Z,101183.84
2018-09-04T06:18:57.613Z,101182.16
2018-09-04T06:21:25.949Z,101182.69
2018-09-04T06:23:54.400Z,101178.23
2018-09-04T06:26:22.848Z,101181.98
2018-09-04T06:28:50.957Z,101180.80
2018-09-04T06:31:19.249Z,101182.33
2018-09-04T06:33:48.181Z,101185.59
2018-09-04T06:36:16.305Z,101182.05
2018-09-04T06:39:00.618Z,101183.76
2018-09-04T06:41:29.721Z,101189.58
2018-09-04T06:43:57.968Z,101188.58
2018-09-04T06:46:26.619Z,101180.91
2018-09-04T06:48:55.297Z,101174.97
2018-09-04T06:51:23.416Z,101183.08
2018-09-04T06:53:52.206Z,101182.39
2018-09-04T06:56:20.304Z,101176.73
2018-09-04T06:58:48.772Z,101181.19
2018-09-04T07:01:17.245Z,101181.37
2018-09-04T07:03:45.681Z,101180.50
2018-09-04T07:06:14.015Z,101183.39
2018-09-04T07:08:42.466Z,101192.65
2018-09-04T07:11:10.912Z,101190.77
2018-09-04T07:13:39.465Z,101196.06
2018-09-04T07:16:07.936Z,101203.45
2018-09-04T07:18:36.577Z,101200.66
2018-09-04T07:21:05.300Z,101199.73
2018-09-04T07:23:34.057Z,101199.33
2018-09-04T07:26:02.529Z,101201.31
2018-09-04T07:28:30.984Z,101195.92
2018-09-04T07:30:59.112Z,101190.09
2018-09-04T07:33:27.793Z,101196.89
2018-09-04T07:35:56.233Z,101199.42
2018-09-04T07:38:24.360Z,101205.16
2018-09-04T07:40:52.796Z,101215.41
2018-09-04T07:43:21.550Z,101213.31
2018-09-04T07:45:49.645Z,101211.38
2018-09-04T07:48:18.056Z,101212.52
2018-09-04T07:50:46.163Z,101215.88
2018-09-04T07:53:14.276Z,101210.50
2018-09-04T07:55:42.704Z,101208.94
2018-09-04T07:58:11.452Z,101208.23
2018-09-04T08:00:39.953Z,101213.36
2018-09-04T08:03:08.461Z,101220.35
2018-09-04T08:05:36.915Z,101215.91
2018-09-04T08:08:05.664Z,101214.38
2018-09-04T08:10:35.897Z,101210.37
2018-09-04T08:13:06.337Z,101213.56
2018-09-04T08:15:35.117Z,101213.16
2018-09-04T08:18:03.618Z,101210.59
2018-09-04T08:20:31.825Z,101211.41
2018-09-04T08:23:00.585Z,101212.25
2018-09-04T08:25:29.525Z,101209.11
2018-09-04T08:27:58.157Z,101215.69
2018-09-04T08:30:26.285Z,101210.66
2018-09-04T08:32:54.796Z,101208.39
2018-09-04T08:35:23.717Z,101211.87
2018-09-04T08:37:56.461Z,101206.97
2018-09-04T08:40:24.892Z,101206.23
2018-09-04T08:42:53.228Z,101201.81
2018-09-04T08:45:21.460Z,101208.45
2018-09-04T08:47:49.663Z,101202.00
2018-09-04T08:50:18.460Z,101201.36
2018-09-04T08:52:46.805Z,101197.67
2018-09-04T09:00:20.933Z,101197.13
2018-09-04T09:02:49.449Z,101196.07
2018-09-04T09:05:17.899Z,101198.70
2018-09-04T09:07:46.054Z,101193.58
2018-09-04T09:10:14.486Z,101195.23
2018-09-04T09:12:42.829Z,101196.41
2018-09-04T09:15:11.273Z,101194.13
2018-09-04T09:17:39.743Z,101189.33
2018-09-04T09:20:08.265Z,101185.17
2018-09-04T09:22:36.405Z,101193.50
2018-09-04T09:25:05.134Z,101196.59
2018-09-04T09:27:33.244Z,101189.73
2018-09-04T09:30:02.134Z,101187.74
2018-09-04T09:32:31.834Z,101177.23
2018-09-04T09:35:00.303Z,101180.18
2018-09-04T09:37:29.015Z,101180.02
2018-09-04T09:39:57.465Z,101177.16
2018-09-04T09:42:25.958Z,101176.91
2018-09-04T09:44:55.003Z,101173.96
2018-09-04T09:47:24.110Z,101171.08
2018-09-04T09:49:52.243Z,101174.07
2018-09-04T09:52:20.928Z,101169.02
2018-09-04T09:54:49.389Z,101170.62
2018-09-04T09:57:17.863Z,101170.48
2018-09-04T09:59:46.016Z,101173.58
2018-09-04T10:02:24.766Z,101169.78
2018-09-04T10:04:53.221Z,101172.73
2018-09-04T10:07:22.115Z,101176.03
2018-09-04T10:09:50.314Z,101164.62
2018-09-04T10:12:18.921Z,101170.08
2018-09-04T10:14:47.057Z,101166.45
2018-09-04T10:17:15.160Z,101162.47
2018-09-04T10:19:43.291Z,101159.73
2018-09-04T10:22:11.594Z,101164.44
2018-09-04T10:24:40.061Z,101165.62
2018-09-04T10:27:08.531Z,101167.32
2018-09-04T10:29:37.185Z,101161.61
2018-09-04T10:32:06.109Z,101153.38
2018-09-04T10:34:34.571Z,101155.80
2018-09-04T10:37:03.132Z,101150.33
2018-09-04T10:42:21.659Z,101142.33
2018-09-04T10:44:49.898Z,101140.27
2018-09-04T10:47:18.348Z,101147.56
2018-09-04T10:49:46.472Z,101148.80
2018-09-04T10:52:14.921Z,101145.48
2018-09-04T10:54:43.262Z,101145.05
2018-09-04T10:57:11.909Z,101145.23
2018-09-04T10:59:40.397Z,101140.01
2018-09-04T11:02:10.599Z,101139.50
2018-09-04T11:04:39.414Z,101127.23
2018-09-04T11:07:07.977Z,101133.98
2018-09-04T11:09:36.237Z,101129.72
2018-09-04T11:12:04.413Z,101131.09
2018-09-04T11:14:32.593Z,101132.66
2018-09-04T11:17:01.046Z,101126.03
2018-09-04T11:19:29.368Z,101130.86
2018-09-04T11:21:57.843Z,101129.55
2018-09-04T11:24:26.569Z,101123.56
2018-09-04T11:26:55.014Z,101133.42
2018-09-04T11:54:59.229Z,101118.21
2018-09-04T11:57:27.404Z,101118.67
2018-09-04T11:59:55.857Z,101122.81
2018-09-04T12:02:30.648Z,101112.52
2018-09-04T12:05:00.257Z,101121.33
2018-09-04T12:07:30.907Z,101118.28
2018-09-04T12:09:59.573Z,101116.66
2018-09-04T12:12:28.776Z,101110.73
2018-09-04T12:14:58.492Z,101113.75
2018-09-04T12:17:28.213Z,101114.98
2018-09-04T12:21:04.805Z,101115.34
2018-09-04T12:23:34.831Z,101108.17
2018-09-04T12:26:06.377Z,101110.38
2018-09-04T12:28:34.687Z,101109.23
2018-09-04T12:31:03.292Z,101101.80
2018-09-04T12:33:31.754Z,101107.71
2018-09-04T12:35:59.920Z,101103.75
2018-09-04T12:38:31.278Z,101110.55
2018-09-04T12:41:04.159Z,101114.52
2018-09-04T12:43:32.844Z,101104.15
2018-09-04T12:46:01.321Z,101102.25
2018-09-04T12:48:30.590Z,101101.51
2018-09-04T12:51:00.272Z,101103.79
2018-09-04T12:53:29.244Z,101099.62
2018-09-04T12:55:57.677Z,101102.02
2018-09-04T12:58:26.390Z,101102.74
2018-09-04T13:00:56.348Z,101104.30
2018-09-04T13:03:26.241Z,101099.77
2018-09-04T13:05:54.641Z,101105.45
2018-09-04T13:08:27.759Z,101097.61
2018-09-04T13:10:56.088Z,101104.03
2018-09-04T13:13:24.552Z,101111.73
2018-09-04T13:15:54.604Z,101100.01
2018-09-04T13:18:23.136Z,101100.76
2018-09-04T13:20:51.640Z,101105.77
2018-09-04T13:23:20.108Z,101108.80
2018-09-04T13:25:48.444Z,101104.97
2018-09-04T13:28:16.913Z,101101.34
2018-09-04T13:30:45.567Z,101100.78
2018-09-04T13:33:13.720Z,101105.17
2018-09-04T13:35:42.228Z,101097.59
2018-09-04T13:38:11.533Z,101097.55
2018-09-04T13:40:40.585Z,101093.53
2018-09-04T13:43:09.057Z,101088.73
2018-09-04T13:45:37.169Z,101086.55
2018-09-04T13:48:05.293Z,101097.30
2018-09-04T13:50:33.768Z,101093.27
2018-09-04T13:53:02.235Z,101096.95
2018-09-04T13:55:30.692Z,101094.36
2018-09-04T13:58:02.148Z,101088.05
2018-09-04T14:00:31.654Z,101094.47
2018-09-04T14:03:00.115Z,101091.16
2018-09-04T14:05:28.234Z,101086.86
2018-09-04T14:07:56.596Z,101090.80
2018-09-04T14:10:25.144Z,101085.32
2018-09-04T14:12:53.588Z,101087.91
2018-09-04T14:15:22.036Z,101083.86
2018-09-04T14:17:50.191Z,101091.30
2018-09-04T14:20:18.541Z,101088.50
2018-09-04T14:22:47.367Z,101089.42
2018-09-04T14:25:17.085Z,101085.34
2018-09-04T14:27:45.190Z,101088.53
2018-09-04T14:30:16.778Z,101084.16
2018-09-04T14:32:43.544Z,101095.31
2018-09-04T14:35:12.620Z,101093.57
2018-09-04T14:37:40.740Z,101093.80
2018-09-04T14:40:09.207Z,101097.59
2018-09-04T14:42:37.652Z,101094.16
2018-09-04T14:45:05.989Z,101089.12
2018-09-04T14:47:34.628Z,101091.09
2018-09-04T14:50:03.323Z,101095.25
2018-09-04T14:52:31.784Z,101096.83
2018-09-04T14:55:00.257Z,101098.95
2018-09-04T14:57:28.380Z,101100.50
2018-09-04T14:59:56.521Z,101099.22
2018-09-04T15:02:24.872Z,101092.66
2018-09-04T15:04:53.387Z,101091.08
2018-09-04T15:07:21.876Z,101092.97
2018-09-04T15:09:50.360Z,101093.88
2018-09-04T15:12:18.472Z,101093.53
2018-09-04T15:14:47.144Z,101092.85
2018-09-04T15:17:15.658Z,101091.54
2018-09-04T15:19:44.172Z,101091.20
2018-09-04T15:22:12.615Z,101091.20
2018-09-04T15:24:41.094Z,101095.39
2018-09-04T15:27:09.569Z,101096.07
2018-09-04T15:29:38.032Z,101095.84
2018-09-04T15:32:06.811Z,101089.77
2018-09-04T15:34:35.258Z,101089.92
2018-09-04T15:37:03.970Z,101097.59
2018-09-04T15:39:32.265Z,101097.64
2018-09-04T15:42:00.583Z,101103.13
2018-09-04T15:44:28.744Z,101099.03
2018-09-04T15:46:57.193Z,101100.08
2018-09-04T15:49:31.140Z,101097.77
2018-09-04T15:52:00.139Z,101100.11
2018-09-04T15:54:41.411Z,101107.23
2018-09-04T15:57:09.956Z,101112.01
2018-09-04T15:59:38.494Z,101109.78
2018-09-04T16:02:06.841Z,101109.30
2018-09-04T16:04:35.181Z,101106.62
2018-09-04T16:07:07.224Z,101108.37
2018-09-04T16:09:35.602Z,101109.45
2018-09-04T16:12:03.948Z,101106.37
2018-09-04T16:14:32.655Z,101102.44
2018-09-04T16:17:00.842Z,101103.22
2018-09-04T16:19:29.007Z,101103.88
2018-09-04T16:21:57.960Z,101093.10
2018-09-04T16:24:26.332Z,101096.11
2018-09-04T16:26:54.506Z,101097.34
2018-09-04T16:29:22.879Z,101097.89
2018-09-04T16:31:51.197Z,101102.06
2018-09-04T16:34:19.623Z,101099.53
2018-09-04T16:36:48.206Z,101092.80
2018-09-04T16:39:16.705Z,101093.69
2018-09-04T16:41:45.379Z,101099.27
2018-09-04T16:44:14.020Z,101110.27
2018-09-04T16:46:42.471Z,101108.05
2018-09-04T16:49:10.591Z,101112.80
2018-09-04T16:51:39.052Z,101110.95
2018-09-04T16:54:07.503Z,101108.64
2018-09-04T16:56:35.824Z,101108.33
2018-09-04T16:59:04.345Z,101106.35
2018-09-04T17:01:32.479Z,101112.31
2018-09-04T17:04:01.132Z,101109.77
2018-09-04T17:06:29.283Z,101115.00
2018-09-04T17:08:57.807Z,101109.83
2018-09-04T17:11:26.319Z,101114.48
2018-09-04T17:13:55.723Z,101107.27
2018-09-04T17:16:23.859Z,101115.11
2018-09-04T17:18:52.197Z,101112.11
2018-09-04T17:21:20.668Z,101121.05
2018-09-04T17:23:49.119Z,101114.55
2018-09-04T17:26:17.599Z,101118.22
2018-09-04T17:28:45.699Z,101123.16
2018-09-04T17:31:13.833Z,101129.83
2018-09-04T17:33:41.948Z,101137.64
2018-09-04T17:36:10.615Z,101137.75
2018-09-04T17:38:39.217Z,101134.81
2018-09-04T17:41:07.679Z,101130.16
2018-09-04T17:43:36.129Z,101127.17
2018-09-04T17:46:04.813Z,101133.38
2018-09-04T17:48:33.363Z,101131.14
2018-09-04T17:51:01.923Z,101136.37
2018-09-04T17:53:30.363Z,101143.53
2018-09-04T17:55:58.688Z,101139.09
2018-09-04T17:58:26.852Z,101145.70
2018-09-04T18:00:55.354Z,101144.55
2018-09-04T18:03:23.703Z,101156.48
2018-09-04T18:05:52.400Z,101151.73
2018-09-04T18:08:20.556Z,101151.38
2018-09-04T18:10:49.204Z,101163.49
2018-09-04T18:13:17.720Z,101165.09
2018-09-04T18:15:45.910Z,101163.41
2018-09-04T18:18:15.442Z,101164.13
2018-09-04T18:20:44.140Z,101168.81
2018-09-04T18:23:12.605Z,101173.70
2018-09-04T18:25:40.720Z,101172.68
2018-09-04T18:28:09.201Z,101175.86
2018-09-04T18:30:37.959Z,101176.28
2018-09-04T18:33:06.405Z,101183.05
2018-09-04T18:35:35.077Z,101185.13
2018-09-04T18:38:04.639Z,101188.41
2018-09-04T18:40:33.007Z,101190.84
2018-09-04T18:43:01.157Z,101193.78
2018-09-04T18:45:43.798Z,101200.28
2018-09-04T18:48:12.243Z,101203.00
2018-09-04T18:50:40.731Z,101206.80
2018-09-04T18:53:09.200Z,101210.05
2018-09-04T18:55:37.671Z,101214.36
2018-09-04T18:58:06.632Z,101213.97
2018-09-04T19:00:35.076Z,101221.69
2018-09-04T19:03:03.569Z,101226.10
2018-09-04T19:05:32.116Z,101222.12
2018-09-04T19:08:02.193Z,101226.91
2018-09-04T19:10:31.135Z,101227.90
2018-09-04T19:12:59.766Z,101223.58
2018-09-04T19:15:28.983Z,101229.77
2018-09-04T19:17:57.355Z,101231.59
2018-09-04T19:20:25.523Z,101229.13
2018-09-04T19:22:54.160Z,101236.48
2018-09-04T19:25:22.312Z,101233.45
2018-09-04T19:27:50.683Z,101229.57
2018-09-04T19:30:19.283Z,101223.77
2018-09-04T19:32:47.416Z,101238.97
2018-09-04T19:35:16.063Z,101238.92
2018-09-04T19:37:45.396Z,101243.31
2018-09-04T19:40:14.290Z,101243.43
2018-09-04T19:42:43.307Z,101239.75
2018-09-04T19:45:11.691Z,101244.13
2018-09-04T19:47:40.867Z,101236.31
2018-09-04T19:50:10.114Z,101243.31
2018-09-04T19:52:38.971Z,101245.47
2018-09-04T19:55:08.797Z,101248.96
2018-09-04T19:57:36.934Z,101251.41
2018-09-04T20:00:05.176Z,101250.14
2018-09-04T20:02:33.636Z,101247.82
2018-09-04T20:05:02.288Z,101247.85
2018-09-04T20:07:30.799Z,101253.92
2018-09-04T20:09:59.265Z,101254.89
2018-09-04T20:12:27.736Z,101262.33
2018-09-04T20:14:55.887Z,101254.67
2018-09-04T20:17:24.454Z,101258.52
2018-09-04T20:19:52.764Z,101258.94
2018-09-04T20:22:21.199Z,101249.00
2018-09-04T20:24:49.409Z,101254.76
2018-09-04T20:27:17.903Z,101255.98
2018-09-04T20:29:46.415Z,101262.73
2018-09-04T20:32:15.501Z,101262.61
2018-09-04T20:34:43.973Z,101264.23
2018-09-04T20:37:12.395Z,101254.98
2018-09-04T20:39:40.529Z,101261.36
2018-09-04T20:42:09.027Z,101268.09
2018-09-04T20:44:37.321Z,101260.90
2018-09-04T20:47:05.776Z,101260.95
2018-09-04T20:49:34.207Z,101260.63
2018-09-04T20:52:02.319Z,101256.20
2018-09-04T20:54:30.694Z,101259.84
2018-09-04T20:57:31.984Z,101266.58
2018-09-04T21:00:16.940Z,101268.34
2018-09-04T21:02:56.986Z,101263.75
2018-09-04T21:05:36.476Z,101268.23
2018-09-04T21:08:18.159Z,101268.28
2018-09-04T21:10:47.117Z,101276.91
2018-09-04T21:13:15.539Z,101268.71
2018-09-04T21:15:43.675Z,101267.53
2018-09-04T21:18:12.399Z,101279.05
2018-09-04T21:20:40.620Z,101273.78
2018-09-04T21:23:09.091Z,101280.83
2018-09-04T21:25:37.239Z,101279.46
2018-09-04T21:28:05.646Z,101283.61
2018-09-04T21:30:34.324Z,101280.21
2018-09-04T21:33:02.825Z,101284.97
2018-09-04T21:35:31.284Z,101286.53
2018-09-04T21:38:00.030Z,101283.66
2018-09-04T21:40:28.471Z,101293.09
2018-09-04T21:42:56.600Z,101294.83
2018-09-04T21:45:24.789Z,101294.84
2018-09-04T21:47:53.242Z,101301.70
2018-09-04T21:50:21.707Z,101301.39
2018-09-04T21:52:50.171Z,101297.59
2018-09-04T21:55:18.297Z,101299.17
2018-09-04T21:57:46.920Z,101304.64
2018-09-04T22:00:19.720Z,101306.34
2018-09-04T22:02:48.172Z,101307.72
2018-09-04T22:05:16.581Z,101310.95
2018-09-04T22:07:44.728Z,101307.69
2018-09-04T22:10:13.183Z,101317.95
2018-09-04T22:12:41.320Z,101318.31
2018-09-04T22:15:09.772Z,101321.39
2018-09-04T22:17:38.341Z,101317.95
2018-09-04T22:20:07.031Z,101320.70
2018-09-04T22:22:35.236Z,101326.51
2018-09-04T22:25:03.920Z,101324.80
2018-09-04T22:27:32.923Z,101323.41
2018-09-04T22:30:01.273Z,101311.09
2018-09-04T22:32:29.688Z,101325.46
2018-09-04T22:34:58.076Z,101323.58
2018-09-04T22:37:26.431Z,101328.87
2018-09-04T22:39:54.896Z,101326.47
2018-09-04T22:42:23.043Z,101330.23
2018-09-04T22:48:11.527Z,101327.50
2018-09-04T22:50:45.428Z,101327.47
2018-09-04T22:53:13.545Z,101329.69
2018-09-04T22:55:41.919Z,101338.22
2018-09-04T22:58:10.421Z,101334.47
2018-09-04T23:00:39.011Z,101336.69
2018-09-04T23:03:07.128Z,101337.35
2018-09-04T23:05:35.456Z,101332.72
2018-09-04T23:08:05.783Z,101332.90
2018-09-04T23:10:34.480Z,101331.33
2018-09-04T23:13:02.929Z,101324.80
2018-09-04T23:15:31.420Z,101332.13
2018-09-04T23:17:59.857Z,101330.42
2018-09-04T23:20:28.312Z,101333.16
2018-09-04T23:22:56.771Z,101331.93
2018-09-04T23:25:25.203Z,101333.09
2018-09-04T23:27:53.681Z,101327.09
2018-09-04T23:30:22.317Z,101330.17
2018-09-04T23:32:51.083Z,101325.02
2018-09-04T23:35:19.519Z,101331.69
2018-09-04T23:37:47.991Z,101324.81
2018-09-04T23:40:16.427Z,101327.02
2018-09-04T23:42:44.575Z,101331.25
2018-09-04T23:45:13.936Z,101328.96
2018-09-04T23:47:42.912Z,101323.79
2018-09-04T23:50:11.455Z,101331.77
2018-09-04T23:52:39.985Z,101323.88
2018-09-04T23:55:08.788Z,101320.47
2018-09-04T23:57:37.683Z,101322.11
